sensor_id;sensor_type;location;lat;lon;timestamp;temperature;humidity
4813;DHT22;2420;51.202;8.698;2023-08-31T00:00:01;11.20;1.00
4813;DHT22;2420;51.202;8.698;2023-08-31T00:02:29;11.10;1.00
4813;DHT22;2420;51.202;8.698;2023-08-31T00:04:55;11.10;1.00
4813;DHT22;2420;51.202;8.698;2023-08-31T00:07:21;11.10;1.00
4813;DHT22;2420;51.202;8.698;2023-08-31T00:09:47;11.10;1.00
4813;DHT22;2420;51.202;8.698;2023-08-31T00:12:13;11.10;1.00
4813;DHT22;2420;51.202;8.698;2023-08-31T00:14:38;11.10;1.00
4813;DHT22;2420;51.202;8.698;2023-08-31T00:17:04;11.10;1.00
4813;DHT22;2420;51.202;8.698;2023-08-31T00:19:30;11.20;1.00
4813;DHT22;2420;51.202;8.698;2023-08-31T00:21:56;11.20;1.00
4813;DHT22;2420;51.202;8.698;2023-08-31T00:24:21;11.20;1.00
4813;DHT22;2420;51.202;8.698;2023-08-31T00:26:48;11.10;1.00
4813;DHT22;2420;51.202;8.698;2023-08-31T00:29:16;11.10;1.00
4813;DHT22;2420;51.202;8.698;2023-08-31T00:31:41;11.10;1.00
4813;DHT22;2420;51.202;8.698;2023-08-31T00:34:10;11.10;1.00
4813;DHT22;2420;51.202;8.698;2023-08-31T00:36:36;11.10;1.00
4813;DHT22;2420;51.202;8.698;2023-08-31T00:39:04;11.10;1.00
4813;DHT22;2420;51.202;8.698;2023-08-31T00:41:36;11.10;1.00
4813;DHT22;2420;51.202;8.698;2023-08-31T00:44:01;11.20;1.00
4813;DHT22;2420;51.202;8.698;2023-08-31T00:46:30;11.20;1.00
4813;DHT22;2420;51.202;8.698;2023-08-31T00:48:56;11.20;1.00
4813;DHT22;2420;51.202;8.698;2023-08-31T00:51:23;11.20;1.00
4813;DHT22;2420;51.202;8.698;2023-08-31T00:53:50;11.20;1.00
4813;DHT22;2420;51.202;8.698;2023-08-31T00:56:18;11.20;1.00
4813;DHT22;2420;51.202;8.698;2023-08-31T00:58:44;11.20;1.00
4813;DHT22;2420;51.202;8.698;2023-08-31T01:12:00;11.10;1.00
4813;DHT22;2420;51.202;8.698;2023-08-31T01:14:42;11.10;1.00
4813;DHT22;2420;51.202;8.698;2023-08-31T01:17:08;11.00;1.00
4813;DHT22;2420;51.202;8.698;2023-08-31T01:19:51;11.00;1.00
4813;DHT22;2420;51.202;8.698;2023-08-31T01:25:16;10.90;1.00
4813;DHT22;2420;51.202;8.698;2023-08-31T01:27:43;10.90;1.00
4813;DHT22;2420;51.202;8.698;2023-08-31T01:30:08;10.80;1.00
4813;DHT22;2420;51.202;8.698;2023-08-31T01:32:34;10.80;1.00
4813;DHT22;2420;51.202;8.698;2023-08-31T01:35:01;10.80;1.00
4813;DHT22;2420;51.202;8.698;2023-08-31T01:40:13;10.80;1.00
4813;DHT22;2420;51.202;8.698;2023-08-31T01:42:42;10.80;1.00
4813;DHT22;2420;51.202;8.698;2023-08-31T01:45:08;10.80;1.00
4813;DHT22;2420;51.202;8.698;2023-08-31T01:47:35;10.80;1.00
4813;DHT22;2420;51.202;8.698;2023-08-31T01:50:01;10.70;1.00
4813;DHT22;2420;51.202;8.698;2023-08-31T01:52:27;10.80;1.00
4813;DHT22;2420;51.202;8.698;2023-08-31T01:54:52;10.80;1.00
4813;DHT22;2420;51.202;8.698;2023-08-31T01:57:18;10.80;1.00
4813;DHT22;2420;51.202;8.698;2023-08-31T01:59:44;10.80;1.00
4813;DHT22;2420;51.202;8.698;2023-08-31T02:02:09;10.80;1.00
4813;DHT22;2420;51.202;8.698;2023-08-31T02:04:35;10.80;1.00
4813;DHT22;2420;51.202;8.698;2023-08-31T02:07:00;10.80;1.00
4813;DHT22;2420;51.202;8.698;2023-08-31T02:09:26;10.70;1.00
4813;DHT22;2420;51.202;8.698;2023-08-31T02:11:52;10.70;1.00
4813;DHT22;2420;51.202;8.698;2023-08-31T02:14:18;10.70;1.00
4813;DHT22;2420;51.202;8.698;2023-08-31T02:16:43;10.70;1.00
4813;DHT22;2420;51.202;8.698;2023-08-31T02:19:09;10.70;1.00
4813;DHT22;2420;51.202;8.698;2023-08-31T02:21:35;10.80;1.00
4813;DHT22;2420;51.202;8.698;2023-08-31T02:24:00;10.80;1.00
4813;DHT22;2420;51.202;8.698;2023-08-31T02:26:26;10.80;1.00
4813;DHT22;2420;51.202;8.698;2023-08-31T02:28:51;10.80;1.00
4813;DHT22;2420;51.202;8.698;2023-08-31T02:31:17;10.80;1.00
4813;DHT22;2420;51.202;8.698;2023-08-31T02:33:45;10.80;1.00
4813;DHT22;2420;51.202;8.698;2023-08-31T02:36:11;10.80;1.00
4813;DHT22;2420;51.202;8.698;2023-08-31T02:38:36;10.80;1.00
4813;DHT22;2420;51.202;8.698;2023-08-31T02:41:02;10.80;1.00
4813;DHT22;2420;51.202;8.698;2023-08-31T02:43:27;10.80;1.00
4813;DHT22;2420;51.202;8.698;2023-08-31T02:46:03;10.90;1.00
4813;DHT22;2420;51.202;8.698;2023-08-31T02:48:29;10.90;1.00
4813;DHT22;2420;51.202;8.698;2023-08-31T02:50:57;10.90;1.00
4813;DHT22;2420;51.202;8.698;2023-08-31T02:53:22;10.90;1.00
4813;DHT22;2420;51.202;8.698;2023-08-31T02:55:48;10.90;1.00
4813;DHT22;2420;51.202;8.698;2023-08-31T02:58:16;11.00;1.00
4813;DHT22;2420;51.202;8.698;2023-08-31T03:00:41;11.00;1.00
4813;DHT22;2420;51.202;8.698;2023-08-31T03:03:08;11.00;1.00
4813;DHT22;2420;51.202;8.698;2023-08-31T03:05:34;11.00;1.00
4813;DHT22;2420;51.202;8.698;2023-08-31T03:08:00;11.10;1.00
4813;DHT22;2420;51.202;8.698;2023-08-31T03:10:25;11.10;1.00
4813;DHT22;2420;51.202;8.698;2023-08-31T03:12:51;11.10;1.00
4813;DHT22;2420;51.202;8.698;2023-08-31T03:15:16;11.10;1.00
4813;DHT22;2420;51.202;8.698;2023-08-31T03:17:42;11.10;1.00
4813;DHT22;2420;51.202;8.698;2023-08-31T03:20:07;11.10;1.00
4813;DHT22;2420;51.202;8.698;2023-08-31T03:22:33;11.10;1.00
4813;DHT22;2420;51.202;8.698;2023-08-31T03:24:59;11.00;1.00
4813;DHT22;2420;51.202;8.698;2023-08-31T03:27:24;11.00;1.00
4813;DHT22;2420;51.202;8.698;2023-08-31T03:29:50;11.00;1.00
4813;DHT22;2420;51.202;8.698;2023-08-31T03:32:16;11.00;1.00
4813;DHT22;2420;51.202;8.698;2023-08-31T03:34:41;10.90;1.00
4813;DHT22;2420;51.202;8.698;2023-08-31T03:37:07;10.90;1.00
4813;DHT22;2420;51.202;8.698;2023-08-31T03:39:32;11.00;1.00
4813;DHT22;2420;51.202;8.698;2023-08-31T03:41:58;10.90;1.00
4813;DHT22;2420;51.202;8.698;2023-08-31T03:44:24;10.90;1.00
4813;DHT22;2420;51.202;8.698;2023-08-31T03:46:49;10.80;1.00
4813;DHT22;2420;51.202;8.698;2023-08-31T03:49:15;10.80;1.00
4813;DHT22;2420;51.202;8.698;2023-08-31T03:51:40;10.80;1.00
4813;DHT22;2420;51.202;8.698;2023-08-31T03:54:06;10.80;1.00
4813;DHT22;2420;51.202;8.698;2023-08-31T03:56:32;10.70;1.00
4813;DHT22;2420;51.202;8.698;2023-08-31T03:58:57;10.70;1.00
4813;DHT22;2420;51.202;8.698;2023-08-31T04:01:23;10.70;1.00
4813;DHT22;2420;51.202;8.698;2023-08-31T04:03:48;10.80;1.00
4813;DHT22;2420;51.202;8.698;2023-08-31T04:06:14;10.80;1.00
4813;DHT22;2420;51.202;8.698;2023-08-31T04:08:39;10.80;1.00
4813;DHT22;2420;51.202;8.698;2023-08-31T04:11:05;10.80;1.00
4813;DHT22;2420;51.202;8.698;2023-08-31T04:13:30;10.80;1.00
4813;DHT22;2420;51.202;8.698;2023-08-31T04:15:56;10.80;1.00
4813;DHT22;2420;51.202;8.698;2023-08-31T04:18:22;10.80;1.00
4813;DHT22;2420;51.202;8.698;2023-08-31T04:20:52;10.90;1.00
4813;DHT22;2420;51.202;8.698;2023-08-31T04:23:18;11.00;1.00
4813;DHT22;2420;51.202;8.698;2023-08-31T04:25:47;11.00;1.00
4813;DHT22;2420;51.202;8.698;2023-08-31T04:28:13;11.00;1.00
4813;DHT22;2420;51.202;8.698;2023-08-31T04:30:39;11.00;1.00
4813;DHT22;2420;51.202;8.698;2023-08-31T04:33:06;11.00;1.00
4813;DHT22;2420;51.202;8.698;2023-08-31T04:35:32;11.00;1.00
4813;DHT22;2420;51.202;8.698;2023-08-31T04:37:58;11.00;1.00
4813;DHT22;2420;51.202;8.698;2023-08-31T04:40:23;11.00;1.00
4813;DHT22;2420;51.202;8.698;2023-08-31T04:42:50;11.10;1.00
4813;DHT22;2420;51.202;8.698;2023-08-31T04:45:15;11.10;1.00
4813;DHT22;2420;51.202;8.698;2023-08-31T04:47:41;11.10;1.00
4813;DHT22;2420;51.202;8.698;2023-08-31T04:50:07;11.20;1.00
4813;DHT22;2420;51.202;8.698;2023-08-31T04:52:33;11.20;1.00
4813;DHT22;2420;51.202;8.698;2023-08-31T04:55:01;11.20;1.00
4813;DHT22;2420;51.202;8.698;2023-08-31T04:57:28;11.10;1.00
4813;DHT22;2420;51.202;8.698;2023-08-31T04:59:54;11.20;1.00
4813;DHT22;2420;51.202;8.698;2023-08-31T05:02:20;11.10;1.00
4813;DHT22;2420;51.202;8.698;2023-08-31T05:04:45;11.20;1.00
4813;DHT22;2420;51.202;8.698;2023-08-31T05:07:11;11.20;1.00
4813;DHT22;2420;51.202;8.698;2023-08-31T05:09:36;11.30;1.00
4813;DHT22;2420;51.202;8.698;2023-08-31T05:12:03;11.20;1.00
4813;DHT22;2420;51.202;8.698;2023-08-31T05:14:29;11.20;1.00
4813;DHT22;2420;51.202;8.698;2023-08-31T05:16:55;11.30;1.00
4813;DHT22;2420;51.202;8.698;2023-08-31T05:19:20;11.20;1.00
4813;DHT22;2420;51.202;8.698;2023-08-31T05:21:46;11.20;1.00
4813;DHT22;2420;51.202;8.698;2023-08-31T05:24:12;11.20;1.00
4813;DHT22;2420;51.202;8.698;2023-08-31T05:26:39;11.20;1.00
4813;DHT22;2420;51.202;8.698;2023-08-31T05:29:05;11.20;1.00
4813;DHT22;2420;51.202;8.698;2023-08-31T05:31:31;11.20;1.00
4813;DHT22;2420;51.202;8.698;2023-08-31T05:33:56;11.20;1.00
4813;DHT22;2420;51.202;8.698;2023-08-31T05:36:22;11.30;1.00
4813;DHT22;2420;51.202;8.698;2023-08-31T05:38:47;11.30;1.00
4813;DHT22;2420;51.202;8.698;2023-08-31T05:41:13;11.30;1.00
4813;DHT22;2420;51.202;8.698;2023-08-31T05:43:38;11.30;1.00
4813;DHT22;2420;51.202;8.698;2023-08-31T05:46:08;11.40;1.00
4813;DHT22;2420;51.202;8.698;2023-08-31T05:48:34;11.40;1.00
4813;DHT22;2420;51.202;8.698;2023-08-31T05:51:00;11.40;1.00
4813;DHT22;2420;51.202;8.698;2023-08-31T05:53:26;11.40;1.00
4813;DHT22;2420;51.202;8.698;2023-08-31T05:55:54;11.40;1.00
4813;DHT22;2420;51.202;8.698;2023-08-31T05:58:19;11.50;1.00
4813;DHT22;2420;51.202;8.698;2023-08-31T06:00:45;11.50;1.00
4813;DHT22;2420;51.202;8.698;2023-08-31T06:03:10;11.60;1.00
4813;DHT22;2420;51.202;8.698;2023-08-31T06:05:36;11.70;1.00
4813;DHT22;2420;51.202;8.698;2023-08-31T06:08:02;11.70;1.00
4813;DHT22;2420;51.202;8.698;2023-08-31T06:10:28;11.70;1.00
4813;DHT22;2420;51.202;8.698;2023-08-31T06:12:54;11.80;1.00
4813;DHT22;2420;51.202;8.698;2023-08-31T06:15:20;11.80;1.00
4813;DHT22;2420;51.202;8.698;2023-08-31T06:17:45;11.80;1.00
4813;DHT22;2420;51.202;8.698;2023-08-31T06:20:11;11.70;1.00
4813;DHT22;2420;51.202;8.698;2023-08-31T06:22:36;11.80;1.00
4813;DHT22;2420;51.202;8.698;2023-08-31T06:25:02;11.70;1.00
4813;DHT22;2420;51.202;8.698;2023-08-31T06:27:29;11.80;1.00
4813;DHT22;2420;51.202;8.698;2023-08-31T06:29:55;11.80;1.00
4813;DHT22;2420;51.202;8.698;2023-08-31T06:32:21;11.80;1.00
4813;DHT22;2420;51.202;8.698;2023-08-31T06:34:47;11.80;1.00
4813;DHT22;2420;51.202;8.698;2023-08-31T06:37:12;11.80;1.00
4813;DHT22;2420;51.202;8.698;2023-08-31T06:39:38;11.80;1.00
4813;DHT22;2420;51.202;8.698;2023-08-31T06:42:04;11.90;1.00
4813;DHT22;2420;51.202;8.698;2023-08-31T06:44:30;11.90;1.00
4813;DHT22;2420;51.202;8.698;2023-08-31T06:46:56;12.00;1.00
4813;DHT22;2420;51.202;8.698;2023-08-31T06:49:24;12.00;1.00
4813;DHT22;2420;51.202;8.698;2023-08-31T06:51:50;12.00;1.00
4813;DHT22;2420;51.202;8.698;2023-08-31T06:54:15;11.90;1.00
4813;DHT22;2420;51.202;8.698;2023-08-31T06:56:41;11.90;1.00
4813;DHT22;2420;51.202;8.698;2023-08-31T06:59:07;11.90;1.00
4813;DHT22;2420;51.202;8.698;2023-08-31T07:01:33;12.00;1.00
4813;DHT22;2420;51.202;8.698;2023-08-31T07:03:59;12.00;1.00
4813;DHT22;2420;51.202;8.698;2023-08-31T07:06:24;12.00;1.00
4813;DHT22;2420;51.202;8.698;2023-08-31T07:08:50;12.00;1.00
4813;DHT22;2420;51.202;8.698;2023-08-31T07:11:17;12.10;1.00
4813;DHT22;2420;51.202;8.698;2023-08-31T07:13:42;12.10;1.00
4813;DHT22;2420;51.202;8.698;2023-08-31T07:16:08;12.20;1.00
4813;DHT22;2420;51.202;8.698;2023-08-31T07:18:34;12.20;1.00
4813;DHT22;2420;51.202;8.698;2023-08-31T07:21:00;12.20;1.00
4813;DHT22;2420;51.202;8.698;2023-08-31T07:23:25;12.30;1.00
4813;DHT22;2420;51.202;8.698;2023-08-31T07:25:51;12.40;1.00
4813;DHT22;2420;51.202;8.698;2023-08-31T07:28:17;12.40;1.00
4813;DHT22;2420;51.202;8.698;2023-08-31T07:30:43;12.40;1.00
4813;DHT22;2420;51.202;8.698;2023-08-31T07:33:09;12.50;1.00
4813;DHT22;2420;51.202;8.698;2023-08-31T07:35:34;12.50;1.00
4813;DHT22;2420;51.202;8.698;2023-08-31T07:38:00;12.60;1.00
4813;DHT22;2420;51.202;8.698;2023-08-31T07:40:26;12.60;1.00
4813;DHT22;2420;51.202;8.698;2023-08-31T07:42:51;12.70;1.00
4813;DHT22;2420;51.202;8.698;2023-08-31T07:45:17;12.70;1.00
4813;DHT22;2420;51.202;8.698;2023-08-31T07:47:43;12.70;1.00
4813;DHT22;2420;51.202;8.698;2023-08-31T07:50:09;12.80;1.00
4813;DHT22;2420;51.202;8.698;2023-08-31T07:52:34;12.90;1.00
4813;DHT22;2420;51.202;8.698;2023-08-31T07:55:00;13.00;1.00
4813;DHT22;2420;51.202;8.698;2023-08-31T07:57:26;13.00;1.00
4813;DHT22;2420;51.202;8.698;2023-08-31T07:59:51;13.20;1.00
4813;DHT22;2420;51.202;8.698;2023-08-31T08:02:17;13.00;1.00
4813;DHT22;2420;51.202;8.698;2023-08-31T08:04:45;13.00;1.00
4813;DHT22;2420;51.202;8.698;2023-08-31T08:07:10;13.10;1.00
4813;DHT22;2420;51.202;8.698;2023-08-31T08:09:36;13.20;1.00
4813;DHT22;2420;51.202;8.698;2023-08-31T08:12:01;13.30;1.00
4813;DHT22;2420;51.202;8.698;2023-08-31T08:14:28;13.30;1.00
4813;DHT22;2420;51.202;8.698;2023-08-31T08:16:53;13.30;1.00
4813;DHT22;2420;51.202;8.698;2023-08-31T08:19:23;13.40;1.00
4813;DHT22;2420;51.202;8.698;2023-08-31T08:21:52;13.60;1.00
4813;DHT22;2420;51.202;8.698;2023-08-31T08:24:18;13.70;1.00
4813;DHT22;2420;51.202;8.698;2023-08-31T08:26:43;13.60;1.00
4813;DHT22;2420;51.202;8.698;2023-08-31T08:29:09;13.70;1.00
4813;DHT22;2420;51.202;8.698;2023-08-31T08:31:35;13.70;1.00
4813;DHT22;2420;51.202;8.698;2023-08-31T08:34:01;13.80;1.00
4813;DHT22;2420;51.202;8.698;2023-08-31T08:36:26;13.90;1.00
4813;DHT22;2420;51.202;8.698;2023-08-31T08:38:52;14.00;1.00
4813;DHT22;2420;51.202;8.698;2023-08-31T08:41:24;14.00;1.00
4813;DHT22;2420;51.202;8.698;2023-08-31T08:43:51;14.00;1.00
4813;DHT22;2420;51.202;8.698;2023-08-31T08:46:17;14.10;1.00
4813;DHT22;2420;51.202;8.698;2023-08-31T08:48:44;14.20;1.00
4813;DHT22;2420;51.202;8.698;2023-08-31T08:51:11;14.20;1.00
4813;DHT22;2420;51.202;8.698;2023-08-31T08:53:37;14.20;1.00
4813;DHT22;2420;51.202;8.698;2023-08-31T08:56:04;14.20;1.00
4813;DHT22;2420;51.202;8.698;2023-08-31T08:58:30;14.20;1.00
4813;DHT22;2420;51.202;8.698;2023-08-31T09:00:56;14.50;1.00
4813;DHT22;2420;51.202;8.698;2023-08-31T09:03:23;14.60;1.00
4813;DHT22;2420;51.202;8.698;2023-08-31T09:05:50;14.60;1.00
4813;DHT22;2420;51.202;8.698;2023-08-31T09:08:26;14.60;1.00
4813;DHT22;2420;51.202;8.698;2023-08-31T09:10:52;14.60;1.00
4813;DHT22;2420;51.202;8.698;2023-08-31T09:13:18;14.60;1.00
4813;DHT22;2420;51.202;8.698;2023-08-31T09:15:44;14.70;1.00
4813;DHT22;2420;51.202;8.698;2023-08-31T09:20:49;15.00;1.00
4813;DHT22;2420;51.202;8.698;2023-08-31T09:23:15;15.20;1.00
4813;DHT22;2420;51.202;8.698;2023-08-31T09:25:46;15.20;1.00
4813;DHT22;2420;51.202;8.698;2023-08-31T09:28:14;15.30;1.00
4813;DHT22;2420;51.202;8.698;2023-08-31T09:30:40;15.30;1.00
4813;DHT22;2420;51.202;8.698;2023-08-31T09:33:10;15.40;1.00
4813;DHT22;2420;51.202;8.698;2023-08-31T09:35:39;15.50;1.00
4813;DHT22;2420;51.202;8.698;2023-08-31T09:38:08;15.70;1.00
4813;DHT22;2420;51.202;8.698;2023-08-31T09:40:34;15.80;1.00
4813;DHT22;2420;51.202;8.698;2023-08-31T09:43:00;15.90;1.00
4813;DHT22;2420;51.202;8.698;2023-08-31T09:45:29;16.10;1.00
4813;DHT22;2420;51.202;8.698;2023-08-31T09:47:55;16.20;1.00
4813;DHT22;2420;51.202;8.698;2023-08-31T09:50:22;16.20;1.00
4813;DHT22;2420;51.202;8.698;2023-08-31T09:52:50;16.20;1.00
4813;DHT22;2420;51.202;8.698;2023-08-31T09:55:20;16.20;1.00
4813;DHT22;2420;51.202;8.698;2023-08-31T09:57:48;16.40;1.00
4813;DHT22;2420;51.202;8.698;2023-08-31T10:00:13;16.50;1.00
4813;DHT22;2420;51.202;8.698;2023-08-31T10:02:42;16.20;1.00
4813;DHT22;2420;51.202;8.698;2023-08-31T10:05:08;16.10;1.00
4813;DHT22;2420;51.202;8.698;2023-08-31T10:07:33;16.20;1.00
4813;DHT22;2420;51.202;8.698;2023-08-31T10:10:00;15.90;1.00
4813;DHT22;2420;51.202;8.698;2023-08-31T10:12:27;15.90;1.00
4813;DHT22;2420;51.202;8.698;2023-08-31T10:14:54;15.90;1.00
4813;DHT22;2420;51.202;8.698;2023-08-31T10:17:20;16.10;1.00
4813;DHT22;2420;51.202;8.698;2023-08-31T10:19:46;16.10;1.00
4813;DHT22;2420;51.202;8.698;2023-08-31T10:22:12;15.90;1.00
4813;DHT22;2420;51.202;8.698;2023-08-31T10:27:26;16.20;1.00
4813;DHT22;2420;51.202;8.698;2023-08-31T10:29:52;16.40;1.00
4813;DHT22;2420;51.202;8.698;2023-08-31T10:32:18;16.60;1.00
4813;DHT22;2420;51.202;8.698;2023-08-31T10:34:44;16.50;1.00
4813;DHT22;2420;51.202;8.698;2023-08-31T10:37:20;16.50;1.00
4813;DHT22;2420;51.202;8.698;2023-08-31T10:39:47;16.30;1.00
4813;DHT22;2420;51.202;8.698;2023-08-31T10:42:12;16.20;1.00
4813;DHT22;2420;51.202;8.698;2023-08-31T10:44:41;16.00;1.00
4813;DHT22;2420;51.202;8.698;2023-08-31T10:47:08;16.20;1.00
4813;DHT22;2420;51.202;8.698;2023-08-31T10:49:34;16.50;1.00
4813;DHT22;2420;51.202;8.698;2023-08-31T10:52:16;16.60;1.00
4813;DHT22;2420;51.202;8.698;2023-08-31T10:54:43;16.70;1.00
4813;DHT22;2420;51.202;8.698;2023-08-31T10:57:08;16.90;1.00
4813;DHT22;2420;51.202;8.698;2023-08-31T10:59:48;17.00;1.00
4813;DHT22;2420;51.202;8.698;2023-08-31T11:02:33;17.00;1.00
4813;DHT22;2420;51.202;8.698;2023-08-31T11:05:10;16.80;1.00
4813;DHT22;2420;51.202;8.698;2023-08-31T11:07:47;16.70;1.00
4813;DHT22;2420;51.202;8.698;2023-08-31T11:10:22;16.80;1.00
4813;DHT22;2420;51.202;8.698;2023-08-31T11:12:50;16.60;1.00
4813;DHT22;2420;51.202;8.698;2023-08-31T11:15:22;16.40;1.00
4813;DHT22;2420;51.202;8.698;2023-08-31T11:17:49;16.40;1.00
4813;DHT22;2420;51.202;8.698;2023-08-31T11:20:17;16.40;1.00
4813;DHT22;2420;51.202;8.698;2023-08-31T11:22:45;16.40;1.00
4813;DHT22;2420;51.202;8.698;2023-08-31T11:25:13;16.30;1.00
4813;DHT22;2420;51.202;8.698;2023-08-31T11:27:39;16.30;1.00
4813;DHT22;2420;51.202;8.698;2023-08-31T11:30:14;16.60;1.00
4813;DHT22;2420;51.202;8.698;2023-08-31T11:33:04;16.70;1.00
4813;DHT22;2420;51.202;8.698;2023-08-31T11:35:37;16.60;1.00
4813;DHT22;2420;51.202;8.698;2023-08-31T11:38:03;16.60;1.00
4813;DHT22;2420;51.202;8.698;2023-08-31T11:40:29;16.60;1.00
4813;DHT22;2420;51.202;8.698;2023-08-31T11:42:56;16.50;1.00
4813;DHT22;2420;51.202;8.698;2023-08-31T11:45:23;16.70;1.00
4813;DHT22;2420;51.202;8.698;2023-08-31T11:47:49;17.20;1.00
4813;DHT22;2420;51.202;8.698;2023-08-31T11:50:16;17.40;1.00
4813;DHT22;2420;51.202;8.698;2023-08-31T11:52:42;17.60;1.00
4813;DHT22;2420;51.202;8.698;2023-08-31T11:55:12;17.70;1.00
4813;DHT22;2420;51.202;8.698;2023-08-31T11:57:38;17.70;1.00
4813;DHT22;2420;51.202;8.698;2023-08-31T12:00:04;17.90;1.00
4813;DHT22;2420;51.202;8.698;2023-08-31T12:02:40;17.90;1.00
4813;DHT22;2420;51.202;8.698;2023-08-31T12:05:06;18.00;1.00
4813;DHT22;2420;51.202;8.698;2023-08-31T12:07:31;18.10;1.00
4813;DHT22;2420;51.202;8.698;2023-08-31T12:10:03;17.80;1.00
4813;DHT22;2420;51.202;8.698;2023-08-31T12:12:29;17.60;1.00
4813;DHT22;2420;51.202;8.698;2023-08-31T12:14:58;17.50;1.00
4813;DHT22;2420;51.202;8.698;2023-08-31T12:17:26;17.40;1.00
4813;DHT22;2420;51.202;8.698;2023-08-31T12:19:51;17.30;1.00
4813;DHT22;2420;51.202;8.698;2023-08-31T12:22:17;17.30;1.00
4813;DHT22;2420;51.202;8.698;2023-08-31T12:24:42;17.40;1.00
4813;DHT22;2420;51.202;8.698;2023-08-31T12:27:09;17.60;1.00
4813;DHT22;2420;51.202;8.698;2023-08-31T12:29:34;17.60;1.00
4813;DHT22;2420;51.202;8.698;2023-08-31T12:32:01;17.80;1.00
4813;DHT22;2420;51.202;8.698;2023-08-31T12:34:26;17.80;1.00
4813;DHT22;2420;51.202;8.698;2023-08-31T12:36:52;17.80;1.00
4813;DHT22;2420;51.202;8.698;2023-08-31T12:39:18;17.80;1.00
4813;DHT22;2420;51.202;8.698;2023-08-31T12:41:43;17.80;1.00
4813;DHT22;2420;51.202;8.698;2023-08-31T12:44:09;17.90;1.00
4813;DHT22;2420;51.202;8.698;2023-08-31T12:46:35;17.90;1.00
4813;DHT22;2420;51.202;8.698;2023-08-31T12:49:01;18.10;1.00
4813;DHT22;2420;51.202;8.698;2023-08-31T12:51:31;18.20;1.00
4813;DHT22;2420;51.202;8.698;2023-08-31T12:53:57;18.40;1.00
4813;DHT22;2420;51.202;8.698;2023-08-31T12:56:23;18.10;1.00
4813;DHT22;2420;51.202;8.698;2023-08-31T12:58:53;18.10;1.00
4813;DHT22;2420;51.202;8.698;2023-08-31T13:01:19;18.30;1.00
4813;DHT22;2420;51.202;8.698;2023-08-31T13:03:46;18.30;1.00
4813;DHT22;2420;51.202;8.698;2023-08-31T13:06:13;18.10;1.00
4813;DHT22;2420;51.202;8.698;2023-08-31T13:08:38;18.00;1.00
4813;DHT22;2420;51.202;8.698;2023-08-31T13:11:04;18.10;1.00
4813;DHT22;2420;51.202;8.698;2023-08-31T13:13:30;18.20;1.00
4813;DHT22;2420;51.202;8.698;2023-08-31T13:15:57;18.10;1.00
4813;DHT22;2420;51.202;8.698;2023-08-31T13:18:22;17.90;1.00
4813;DHT22;2420;51.202;8.698;2023-08-31T13:20:54;17.80;1.00
4813;DHT22;2420;51.202;8.698;2023-08-31T13:23:21;17.70;1.00
4813;DHT22;2420;51.202;8.698;2023-08-31T13:25:47;17.70;1.00
4813;DHT22;2420;51.202;8.698;2023-08-31T13:28:13;17.90;1.00
4813;DHT22;2420;51.202;8.698;2023-08-31T13:30:39;18.00;1.00
4813;DHT22;2420;51.202;8.698;2023-08-31T13:33:05;18.20;1.00
4813;DHT22;2420;51.202;8.698;2023-08-31T13:35:31;18.30;1.00
4813;DHT22;2420;51.202;8.698;2023-08-31T13:37:57;18.40;1.00
4813;DHT22;2420;51.202;8.698;2023-08-31T13:40:22;18.40;1.00
4813;DHT22;2420;51.202;8.698;2023-08-31T13:42:56;18.40;1.00
4813;DHT22;2420;51.202;8.698;2023-08-31T13:45:28;18.30;1.00
4813;DHT22;2420;51.202;8.698;2023-08-31T13:47:54;18.10;1.00
4813;DHT22;2420;51.202;8.698;2023-08-31T13:50:20;18.00;1.00
4813;DHT22;2420;51.202;8.698;2023-08-31T13:52:45;18.10;1.00
4813;DHT22;2420;51.202;8.698;2023-08-31T13:55:11;18.30;1.00
4813;DHT22;2420;51.202;8.698;2023-08-31T13:57:40;18.50;1.00
4813;DHT22;2420;51.202;8.698;2023-08-31T14:00:07;18.50;1.00
4813;DHT22;2420;51.202;8.698;2023-08-31T14:02:37;18.60;1.00
4813;DHT22;2420;51.202;8.698;2023-08-31T14:05:06;18.70;1.00
4813;DHT22;2420;51.202;8.698;2023-08-31T14:07:33;19.00;1.00
4813;DHT22;2420;51.202;8.698;2023-08-31T14:09:59;19.10;1.00
4813;DHT22;2420;51.202;8.698;2023-08-31T14:12:25;19.40;1.00
4813;DHT22;2420;51.202;8.698;2023-08-31T14:14:53;19.30;1.00
4813;DHT22;2420;51.202;8.698;2023-08-31T14:17:20;19.10;1.00
4813;DHT22;2420;51.202;8.698;2023-08-31T14:19:45;19.00;1.00
4813;DHT22;2420;51.202;8.698;2023-08-31T14:22:11;19.10;1.00
4813;DHT22;2420;51.202;8.698;2023-08-31T14:24:37;19.20;1.00
4813;DHT22;2420;51.202;8.698;2023-08-31T14:27:03;19.20;1.00
4813;DHT22;2420;51.202;8.698;2023-08-31T14:29:29;19.00;1.00
4813;DHT22;2420;51.202;8.698;2023-08-31T14:31:55;18.80;1.00
4813;DHT22;2420;51.202;8.698;2023-08-31T14:34:21;18.50;1.00
4813;DHT22;2420;51.202;8.698;2023-08-31T14:36:47;18.40;1.00
4813;DHT22;2420;51.202;8.698;2023-08-31T14:39:12;18.10;1.00
4813;DHT22;2420;51.202;8.698;2023-08-31T14:41:38;18.00;1.00
4813;DHT22;2420;51.202;8.698;2023-08-31T14:44:03;17.90;1.00
4813;DHT22;2420;51.202;8.698;2023-08-31T14:46:29;17.90;1.00
4813;DHT22;2420;51.202;8.698;2023-08-31T14:48:54;17.80;1.00
4813;DHT22;2420;51.202;8.698;2023-08-31T14:51:20;17.70;1.00
4813;DHT22;2420;51.202;8.698;2023-08-31T14:53:46;17.60;1.00
4813;DHT22;2420;51.202;8.698;2023-08-31T14:56:11;17.70;1.00
4813;DHT22;2420;51.202;8.698;2023-08-31T14:58:37;17.80;1.00
4813;DHT22;2420;51.202;8.698;2023-08-31T15:01:02;17.80;1.00
4813;DHT22;2420;51.202;8.698;2023-08-31T15:03:28;17.70;1.00
4813;DHT22;2420;51.202;8.698;2023-08-31T15:05:54;17.70;1.00
4813;DHT22;2420;51.202;8.698;2023-08-31T15:08:22;17.60;1.00
4813;DHT22;2420;51.202;8.698;2023-08-31T15:11:00;17.40;1.00
4813;DHT22;2420;51.202;8.698;2023-08-31T15:13:27;17.30;1.00
4813;DHT22;2420;51.202;8.698;2023-08-31T15:15:53;17.20;1.00
4813;DHT22;2420;51.202;8.698;2023-08-31T15:18:18;17.10;1.00
4813;DHT22;2420;51.202;8.698;2023-08-31T15:20:44;17.00;1.00
4813;DHT22;2420;51.202;8.698;2023-08-31T15:23:09;16.80;1.00
4813;DHT22;2420;51.202;8.698;2023-08-31T15:25:35;16.80;1.00
4813;DHT22;2420;51.202;8.698;2023-08-31T15:28:00;16.70;1.00
4813;DHT22;2420;51.202;8.698;2023-08-31T15:30:26;16.80;1.00
4813;DHT22;2420;51.202;8.698;2023-08-31T15:32:51;16.90;1.00
4813;DHT22;2420;51.202;8.698;2023-08-31T15:35:20;17.10;1.00
4813;DHT22;2420;51.202;8.698;2023-08-31T15:37:45;17.40;1.00
4813;DHT22;2420;51.202;8.698;2023-08-31T15:40:13;17.60;1.00
4813;DHT22;2420;51.202;8.698;2023-08-31T15:42:38;17.70;1.00
4813;DHT22;2420;51.202;8.698;2023-08-31T15:45:04;17.80;1.00
4813;DHT22;2420;51.202;8.698;2023-08-31T15:47:30;17.60;1.00
4813;DHT22;2420;51.202;8.698;2023-08-31T15:49:55;17.50;1.00
4813;DHT22;2420;51.202;8.698;2023-08-31T15:52:22;17.50;1.00
4813;DHT22;2420;51.202;8.698;2023-08-31T15:54:47;17.50;1.00
4813;DHT22;2420;51.202;8.698;2023-08-31T15:57:13;17.40;1.00
4813;DHT22;2420;51.202;8.698;2023-08-31T15:59:38;17.40;1.00
4813;DHT22;2420;51.202;8.698;2023-08-31T16:02:05;17.40;1.00
4813;DHT22;2420;51.202;8.698;2023-08-31T16:04:31;17.40;1.00
4813;DHT22;2420;51.202;8.698;2023-08-31T16:06:56;17.40;1.00
4813;DHT22;2420;51.202;8.698;2023-08-31T16:09:22;17.40;1.00
4813;DHT22;2420;51.202;8.698;2023-08-31T16:11:47;17.40;1.00
4813;DHT22;2420;51.202;8.698;2023-08-31T16:14:13;17.40;1.00
4813;DHT22;2420;51.202;8.698;2023-08-31T16:16:38;17.40;1.00
4813;DHT22;2420;51.202;8.698;2023-08-31T16:19:06;17.40;1.00
4813;DHT22;2420;51.202;8.698;2023-08-31T16:21:31;17.40;1.00
4813;DHT22;2420;51.202;8.698;2023-08-31T16:23:57;17.50;1.00
4813;DHT22;2420;51.202;8.698;2023-08-31T16:26:23;17.40;1.00
4813;DHT22;2420;51.202;8.698;2023-08-31T16:28:48;17.40;1.00
4813;DHT22;2420;51.202;8.698;2023-08-31T16:31:14;17.40;1.00
4813;DHT22;2420;51.202;8.698;2023-08-31T16:33:39;17.30;1.00